sensor_id;sensor_type;location;lat;lon;timestamp;P1;durP1;ratioP1;P2;durP2;ratioP2
49460;SDS011;35355;49.198;-0.368;2022-07-22T00:02:14;18.08;;;7.05;;
49460;SDS011;35355;49.198;-0.368;2022-07-22T00:04:40;16.60;;;7.68;;
49460;SDS011;35355;49.198;-0.368;2022-07-22T00:07:05;24.60;;;8.02;;
49460;SDS011;35355;49.198;-0.368;2022-07-22T00:09:31;14.50;;;7.72;;
49460;SDS011;35355;49.198;-0.368;2022-07-22T00:11:57;15.05;;;8.45;;
49460;SDS011;35355;49.198;-0.368;2022-07-22T00:14:22;21.98;;;7.88;;
49460;SDS011;35355;49.198;-0.368;2022-07-22T00:16:48;14.90;;;7.75;;
49460;SDS011;35355;49.198;-0.368;2022-07-22T00:19:13;17.10;;;7.00;;
49460;SDS011;35355;49.198;-0.368;2022-07-22T00:21:39;17.33;;;7.30;;
49460;SDS011;35355;49.198;-0.368;2022-07-22T00:24:04;12.73;;;5.68;;
49460;SDS011;35355;49.198;-0.368;2022-07-22T00:26:30;10.88;;;5.45;;
49460;SDS011;35355;49.198;-0.368;2022-07-22T00:28:56;13.95;;;6.28;;
49460;SDS011;35355;49.198;-0.368;2022-07-22T00:31:21;11.70;;;6.13;;
49460;SDS011;35355;49.198;-0.368;2022-07-22T00:33:47;16.45;;;7.38;;
49460;SDS011;35355;49.198;-0.368;2022-07-22T00:36:12;14.50;;;6.65;;
49460;SDS011;35355;49.198;-0.368;2022-07-22T00:38:38;14.93;;;7.72;;
49460;SDS011;35355;49.198;-0.368;2022-07-22T00:41:03;12.13;;;5.68;;
49460;SDS011;35355;49.198;-0.368;2022-07-22T00:43:47;15.18;;;6.68;;
49460;SDS011;35355;49.198;-0.368;2022-07-22T00:46:16;9.75;;;5.53;;
49460;SDS011;35355;49.198;-0.368;2022-07-22T00:48:42;12.73;;;6.53;;
49460;SDS011;35355;49.198;-0.368;2022-07-22T00:51:07;18.67;;;5.63;;
49460;SDS011;35355;49.198;-0.368;2022-07-22T00:53:33;13.32;;;5.63;;
49460;SDS011;35355;49.198;-0.368;2022-07-22T00:55:59;16.10;;;6.10;;
49460;SDS011;35355;49.198;-0.368;2022-07-22T00:58:26;12.57;;;5.88;;
49460;SDS011;35355;49.198;-0.368;2022-07-22T01:00:52;15.65;;;6.50;;
49460;SDS011;35355;49.198;-0.368;2022-07-22T01:03:17;9.98;;;5.10;;
49460;SDS011;35355;49.198;-0.368;2022-07-22T01:05:43;15.02;;;5.95;;
49460;SDS011;35355;49.198;-0.368;2022-07-22T01:08:08;14.73;;;5.68;;
49460;SDS011;35355;49.198;-0.368;2022-07-22T01:10:34;13.48;;;5.70;;
49460;SDS011;35355;49.198;-0.368;2022-07-22T01:12:59;9.45;;;4.93;;
49460;SDS011;35355;49.198;-0.368;2022-07-22T01:15:25;13.18;;;5.82;;
49460;SDS011;35355;49.198;-0.368;2022-07-22T01:17:50;8.93;;;5.15;;
49460;SDS011;35355;49.198;-0.368;2022-07-22T01:20:15;15.70;;;6.50;;
49460;SDS011;35355;49.198;-0.368;2022-07-22T01:22:41;15.45;;;6.45;;
49460;SDS011;35355;49.198;-0.368;2022-07-22T01:25:07;16.77;;;6.25;;
49460;SDS011;35355;49.198;-0.368;2022-07-22T01:27:32;18.33;;;6.18;;
49460;SDS011;35355;49.198;-0.368;2022-07-22T01:29:58;13.20;;;6.63;;
49460;SDS011;35355;49.198;-0.368;2022-07-22T01:32:23;11.45;;;6.35;;
49460;SDS011;35355;49.198;-0.368;2022-07-22T01:34:49;14.68;;;7.10;;
49460;SDS011;35355;49.198;-0.368;2022-07-22T01:37:14;13.52;;;6.70;;
49460;SDS011;35355;49.198;-0.368;2022-07-22T01:39:40;12.35;;;5.47;;
49460;SDS011;35355;49.198;-0.368;2022-07-22T01:42:05;15.93;;;6.38;;
49460;SDS011;35355;49.198;-0.368;2022-07-22T01:44:31;14.02;;;5.78;;
49460;SDS011;35355;49.198;-0.368;2022-07-22T01:46:57;13.98;;;4.85;;
49460;SDS011;35355;49.198;-0.368;2022-07-22T01:49:23;11.07;;;6.05;;
49460;SDS011;35355;49.198;-0.368;2022-07-22T01:51:49;12.80;;;7.13;;
49460;SDS011;35355;49.198;-0.368;2022-07-22T01:54:15;13.55;;;5.53;;
49460;SDS011;35355;49.198;-0.368;2022-07-22T01:56:40;14.90;;;6.40;;
49460;SDS011;35355;49.198;-0.368;2022-07-22T01:59:06;11.00;;;6.75;;
49460;SDS011;35355;49.198;-0.368;2022-07-22T02:01:32;15.85;;;6.70;;
49460;SDS011;35355;49.198;-0.368;2022-07-22T02:03:58;17.50;;;6.50;;
49460;SDS011;35355;49.198;-0.368;2022-07-22T02:06:23;17.30;;;6.50;;
49460;SDS011;35355;49.198;-0.368;2022-07-22T02:08:49;13.48;;;6.90;;
49460;SDS011;35355;49.198;-0.368;2022-07-22T02:11:14;13.73;;;6.57;;
49460;SDS011;35355;49.198;-0.368;2022-07-22T02:13:40;13.20;;;5.65;;
49460;SDS011;35355;49.198;-0.368;2022-07-22T02:16:05;14.90;;;6.72;;
49460;SDS011;35355;49.198;-0.368;2022-07-22T02:18:30;13.02;;;6.35;;
49460;SDS011;35355;49.198;-0.368;2022-07-22T02:20:56;15.35;;;6.72;;
49460;SDS011;35355;49.198;-0.368;2022-07-22T02:23:21;14.60;;;6.70;;
49460;SDS011;35355;49.198;-0.368;2022-07-22T02:25:47;18.52;;;7.10;;
49460;SDS011;35355;49.198;-0.368;2022-07-22T02:28:12;20.73;;;7.18;;
49460;SDS011;35355;49.198;-0.368;2022-07-22T02:30:38;12.00;;;6.47;;
49460;SDS011;35355;49.198;-0.368;2022-07-22T02:33:03;13.18;;;7.22;;
49460;SDS011;35355;49.198;-0.368;2022-07-22T02:35:29;19.55;;;7.15;;
49460;SDS011;35355;49.198;-0.368;2022-07-22T02:37:55;16.27;;;6.38;;
49460;SDS011;35355;49.198;-0.368;2022-07-22T02:40:20;17.80;;;7.50;;
49460;SDS011;35355;49.198;-0.368;2022-07-22T02:42:45;14.23;;;6.82;;
49460;SDS011;35355;49.198;-0.368;2022-07-22T02:45:11;11.55;;;6.88;;
49460;SDS011;35355;49.198;-0.368;2022-07-22T02:47:50;18.00;;;7.13;;
49460;SDS011;35355;49.198;-0.368;2022-07-22T02:50:17;16.27;;;8.00;;
49460;SDS011;35355;49.198;-0.368;2022-07-22T02:52:43;14.93;;;6.05;;
49460;SDS011;35355;49.198;-0.368;2022-07-22T02:55:08;11.93;;;6.40;;
49460;SDS011;35355;49.198;-0.368;2022-07-22T02:57:34;15.57;;;6.80;;
49460;SDS011;35355;49.198;-0.368;2022-07-22T03:00:00;14.40;;;6.95;;
49460;SDS011;35355;49.198;-0.368;2022-07-22T03:02:26;13.77;;;8.35;;
49460;SDS011;35355;49.198;-0.368;2022-07-22T03:04:51;13.52;;;7.28;;
49460;SDS011;35355;49.198;-0.368;2022-07-22T03:07:17;21.52;;;8.25;;
49460;SDS011;35355;49.198;-0.368;2022-07-22T03:09:42;15.07;;;7.13;;
49460;SDS011;35355;49.198;-0.368;2022-07-22T03:12:08;12.57;;;7.50;;
49460;SDS011;35355;49.198;-0.368;2022-07-22T03:14:34;16.17;;;7.88;;
49460;SDS011;35355;49.198;-0.368;2022-07-22T03:16:59;17.85;;;7.35;;
49460;SDS011;35355;49.198;-0.368;2022-07-22T03:19:24;15.65;;;7.07;;
49460;SDS011;35355;49.198;-0.368;2022-07-22T03:21:50;15.07;;;6.60;;
49460;SDS011;35355;49.198;-0.368;2022-07-22T03:24:15;11.77;;;6.95;;
49460;SDS011;35355;49.198;-0.368;2022-07-22T03:26:41;13.57;;;6.78;;
49460;SDS011;35355;49.198;-0.368;2022-07-22T03:29:07;21.25;;;8.27;;
49460;SDS011;35355;49.198;-0.368;2022-07-22T03:31:34;13.32;;;7.40;;
49460;SDS011;35355;49.198;-0.368;2022-07-22T03:33:59;13.27;;;7.20;;
49460;SDS011;35355;49.198;-0.368;2022-07-22T03:36:26;13.25;;;7.55;;
49460;SDS011;35355;49.198;-0.368;2022-07-22T03:38:54;14.15;;;7.57;;
49460;SDS011;35355;49.198;-0.368;2022-07-22T03:41:19;13.15;;;7.25;;
49460;SDS011;35355;49.198;-0.368;2022-07-22T03:43:45;13.18;;;6.80;;
49460;SDS011;35355;49.198;-0.368;2022-07-22T03:46:12;24.70;;;8.38;;
49460;SDS011;35355;49.198;-0.368;2022-07-22T03:48:38;15.25;;;9.65;;
49460;SDS011;35355;49.198;-0.368;2022-07-22T03:51:03;17.63;;;8.38;;
49460;SDS011;35355;49.198;-0.368;2022-07-22T03:53:30;19.50;;;8.73;;
49460;SDS011;35355;49.198;-0.368;2022-07-22T03:55:57;15.18;;;8.10;;
49460;SDS011;35355;49.198;-0.368;2022-07-22T03:58:23;17.17;;;8.35;;
49460;SDS011;35355;49.198;-0.368;2022-07-22T04:00:53;14.68;;;8.57;;
49460;SDS011;35355;49.198;-0.368;2022-07-22T04:03:19;19.35;;;8.05;;
49460;SDS011;35355;49.198;-0.368;2022-07-22T04:05:48;13.32;;;8.35;;
49460;SDS011;35355;49.198;-0.368;2022-07-22T04:08:15;17.85;;;8.88;;
49460;SDS011;35355;49.198;-0.368;2022-07-22T04:10:42;16.85;;;8.15;;
49460;SDS011;35355;49.198;-0.368;2022-07-22T04:13:07;17.75;;;8.57;;
49460;SDS011;35355;49.198;-0.368;2022-07-22T04:15:33;13.13;;;7.75;;
49460;SDS011;35355;49.198;-0.368;2022-07-22T04:17:59;12.52;;;7.53;;
49460;SDS011;35355;49.198;-0.368;2022-07-22T04:20:24;15.90;;;8.15;;
49460;SDS011;35355;49.198;-0.368;2022-07-22T04:22:50;15.75;;;8.50;;
49460;SDS011;35355;49.198;-0.368;2022-07-22T04:25:16;16.17;;;8.75;;
49460;SDS011;35355;49.198;-0.368;2022-07-22T04:27:42;13.32;;;8.15;;
49460;SDS011;35355;49.198;-0.368;2022-07-22T04:30:09;19.48;;;8.68;;
49460;SDS011;35355;49.198;-0.368;2022-07-22T04:32:35;15.52;;;8.10;;
49460;SDS011;35355;49.198;-0.368;2022-07-22T04:35:01;21.38;;;8.63;;
49460;SDS011;35355;49.198;-0.368;2022-07-22T04:37:26;19.88;;;9.25;;
49460;SDS011;35355;49.198;-0.368;2022-07-22T04:39:52;18.20;;;7.93;;
49460;SDS011;35355;49.198;-0.368;2022-07-22T04:42:18;18.80;;;9.05;;
49460;SDS011;35355;49.198;-0.368;2022-07-22T04:44:44;13.90;;;8.50;;
49460;SDS011;35355;49.198;-0.368;2022-07-22T04:47:10;14.18;;;8.18;;
49460;SDS011;35355;49.198;-0.368;2022-07-22T04:49:36;13.73;;;8.68;;
49460;SDS011;35355;49.198;-0.368;2022-07-22T04:52:02;18.85;;;8.57;;
49460;SDS011;35355;49.198;-0.368;2022-07-22T04:54:28;16.17;;;8.77;;
49460;SDS011;35355;49.198;-0.368;2022-07-22T04:56:54;16.65;;;7.80;;
49460;SDS011;35355;49.198;-0.368;2022-07-22T04:59:20;18.77;;;9.05;;
49460;SDS011;35355;49.198;-0.368;2022-07-22T05:01:46;20.05;;;9.43;;
49460;SDS011;35355;49.198;-0.368;2022-07-22T05:04:11;18.58;;;8.15;;
49460;SDS011;35355;49.198;-0.368;2022-07-22T05:06:37;18.55;;;8.27;;
49460;SDS011;35355;49.198;-0.368;2022-07-22T05:09:03;18.85;;;8.15;;
49460;SDS011;35355;49.198;-0.368;2022-07-22T05:11:29;20.20;;;8.50;;
49460;SDS011;35355;49.198;-0.368;2022-07-22T05:13:55;19.80;;;8.90;;
49460;SDS011;35355;49.198;-0.368;2022-07-22T05:16:20;15.27;;;8.77;;
49460;SDS011;35355;49.198;-0.368;2022-07-22T05:18:46;20.88;;;8.27;;
49460;SDS011;35355;49.198;-0.368;2022-07-22T05:42:13;15.98;;;8.65;;
49460;SDS011;35355;49.198;-0.368;2022-07-22T05:44:39;19.58;;;9.27;;
49460;SDS011;35355;49.198;-0.368;2022-07-22T05:47:05;23.98;;;9.80;;
49460;SDS011;35355;49.198;-0.368;2022-07-22T05:49:31;14.77;;;8.25;;
49460;SDS011;35355;49.198;-0.368;2022-07-22T05:51:57;20.08;;;8.32;;
49460;SDS011;35355;49.198;-0.368;2022-07-22T05:54:26;17.08;;;8.60;;
49460;SDS011;35355;49.198;-0.368;2022-07-22T05:56:52;18.30;;;8.35;;
49460;SDS011;35355;49.198;-0.368;2022-07-22T05:59:18;15.93;;;8.13;;
49460;SDS011;35355;49.198;-0.368;2022-07-22T06:01:44;17.42;;;8.60;;
49460;SDS011;35355;49.198;-0.368;2022-07-22T06:04:10;16.77;;;8.07;;
49460;SDS011;35355;49.198;-0.368;2022-07-22T06:06:35;19.73;;;8.88;;
49460;SDS011;35355;49.198;-0.368;2022-07-22T06:09:01;22.48;;;8.43;;
49460;SDS011;35355;49.198;-0.368;2022-07-22T06:11:27;13.68;;;7.75;;
49460;SDS011;35355;49.198;-0.368;2022-07-22T06:13:53;17.48;;;8.50;;
49460;SDS011;35355;49.198;-0.368;2022-07-22T06:16:19;13.73;;;8.50;;
49460;SDS011;35355;49.198;-0.368;2022-07-22T06:18:44;17.38;;;9.00;;
49460;SDS011;35355;49.198;-0.368;2022-07-22T06:21:10;21.15;;;8.05;;
49460;SDS011;35355;49.198;-0.368;2022-07-22T06:23:35;19.73;;;8.68;;
49460;SDS011;35355;49.198;-0.368;2022-07-22T06:26:01;12.95;;;8.93;;
49460;SDS011;35355;49.198;-0.368;2022-07-22T06:28:27;18.73;;;8.90;;
49460;SDS011;35355;49.198;-0.368;2022-07-22T06:30:53;19.05;;;9.48;;
49460;SDS011;35355;49.198;-0.368;2022-07-22T06:33:18;14.10;;;9.80;;
49460;SDS011;35355;49.198;-0.368;2022-07-22T06:35:44;19.13;;;9.20;;
49460;SDS011;35355;49.198;-0.368;2022-07-22T06:38:10;17.48;;;8.90;;
49460;SDS011;35355;49.198;-0.368;2022-07-22T06:40:35;15.75;;;8.45;;
49460;SDS011;35355;49.198;-0.368;2022-07-22T06:43:01;19.10;;;9.77;;
49460;SDS011;35355;49.198;-0.368;2022-07-22T06:45:28;16.27;;;9.25;;
49460;SDS011;35355;49.198;-0.368;2022-07-22T06:47:54;17.75;;;8.80;;
49460;SDS011;35355;49.198;-0.368;2022-07-22T06:50:20;20.92;;;9.45;;
49460;SDS011;35355;49.198;-0.368;2022-07-22T06:52:46;21.98;;;9.90;;
49460;SDS011;35355;49.198;-0.368;2022-07-22T06:55:14;18.80;;;9.05;;
49460;SDS011;35355;49.198;-0.368;2022-07-22T06:57:40;18.77;;;9.75;;
49460;SDS011;35355;49.198;-0.368;2022-07-22T07:00:06;18.30;;;8.65;;
49460;SDS011;35355;49.198;-0.368;2022-07-22T07:02:33;17.33;;;8.93;;
49460;SDS011;35355;49.198;-0.368;2022-07-22T07:04:59;17.30;;;8.57;;
49460;SDS011;35355;49.198;-0.368;2022-07-22T07:07:25;14.65;;;8.32;;
49460;SDS011;35355;49.198;-0.368;2022-07-22T07:09:50;14.93;;;9.00;;
49460;SDS011;35355;49.198;-0.368;2022-07-22T07:12:16;15.57;;;9.23;;
49460;SDS011;35355;49.198;-0.368;2022-07-22T07:14:41;14.73;;;9.07;;
49460;SDS011;35355;49.198;-0.368;2022-07-22T07:17:08;13.40;;;7.50;;
49460;SDS011;35355;49.198;-0.368;2022-07-22T07:19:34;16.52;;;7.75;;
49460;SDS011;35355;49.198;-0.368;2022-07-22T07:22:00;12.25;;;7.85;;
49460;SDS011;35355;49.198;-0.368;2022-07-22T07:24:25;15.93;;;7.97;;
49460;SDS011;35355;49.198;-0.368;2022-07-22T07:26:53;12.65;;;8.15;;
49460;SDS011;35355;49.198;-0.368;2022-07-22T07:29:19;15.45;;;7.82;;
49460;SDS011;35355;49.198;-0.368;2022-07-22T07:31:44;15.05;;;7.97;;
49460;SDS011;35355;49.198;-0.368;2022-07-22T07:34:10;16.60;;;7.85;;
49460;SDS011;35355;49.198;-0.368;2022-07-22T07:36:35;19.13;;;7.60;;
49460;SDS011;35355;49.198;-0.368;2022-07-22T07:39:01;17.33;;;9.23;;
49460;SDS011;35355;49.198;-0.368;2022-07-22T07:41:26;20.38;;;8.43;;
49460;SDS011;35355;49.198;-0.368;2022-07-22T07:43:52;16.77;;;7.80;;
49460;SDS011;35355;49.198;-0.368;2022-07-22T07:46:18;20.95;;;7.22;;
49460;SDS011;35355;49.198;-0.368;2022-07-22T07:48:43;24.30;;;8.48;;
49460;SDS011;35355;49.198;-0.368;2022-07-22T07:51:10;12.75;;;8.07;;
49460;SDS011;35355;49.198;-0.368;2022-07-22T07:53:35;20.30;;;7.70;;
49460;SDS011;35355;49.198;-0.368;2022-07-22T07:56:01;18.83;;;7.90;;
49460;SDS011;35355;49.198;-0.368;2022-07-22T07:58:27;12.85;;;7.63;;
49460;SDS011;35355;49.198;-0.368;2022-07-22T08:00:52;19.20;;;7.70;;
49460;SDS011;35355;49.198;-0.368;2022-07-22T08:03:18;13.88;;;7.80;;
49460;SDS011;35355;49.198;-0.368;2022-07-22T08:05:44;17.58;;;8.35;;
49460;SDS011;35355;49.198;-0.368;2022-07-22T08:08:10;13.30;;;7.40;;
49460;SDS011;35355;49.198;-0.368;2022-07-22T08:10:36;13.93;;;8.20;;
49460;SDS011;35355;49.198;-0.368;2022-07-22T08:13:01;15.43;;;7.47;;
49460;SDS011;35355;49.198;-0.368;2022-07-22T08:15:28;19.50;;;9.35;;
49460;SDS011;35355;49.198;-0.368;2022-07-22T08:17:54;20.48;;;9.13;;
49460;SDS011;35355;49.198;-0.368;2022-07-22T08:20:22;19.60;;;7.78;;
49460;SDS011;35355;49.198;-0.368;2022-07-22T08:22:49;17.83;;;8.02;;
49460;SDS011;35355;49.198;-0.368;2022-07-22T08:25:14;23.27;;;9.88;;
49460;SDS011;35355;49.198;-0.368;2022-07-22T08:27:40;14.85;;;9.55;;
49460;SDS011;35355;49.198;-0.368;2022-07-22T08:30:06;18.95;;;9.32;;
49460;SDS011;35355;49.198;-0.368;2022-07-22T08:32:32;24.13;;;9.98;;
49460;SDS011;35355;49.198;-0.368;2022-07-22T08:34:58;16.65;;;8.70;;
49460;SDS011;35355;49.198;-0.368;2022-07-22T08:37:24;19.23;;;10.07;;
49460;SDS011;35355;49.198;-0.368;2022-07-22T08:39:50;17.65;;;9.07;;
49460;SDS011;35355;49.198;-0.368;2022-07-22T08:42:19;15.85;;;9.70;;
49460;SDS011;35355;49.198;-0.368;2022-07-22T08:44:46;19.67;;;9.35;;
49460;SDS011;35355;49.198;-0.368;2022-07-22T08:47:13;17.25;;;9.02;;
49460;SDS011;35355;49.198;-0.368;2022-07-22T08:49:38;20.33;;;9.02;;
49460;SDS011;35355;49.198;-0.368;2022-07-22T08:52:04;21.58;;;10.15;;
49460;SDS011;35355;49.198;-0.368;2022-07-22T08:54:30;21.15;;;9.00;;
49460;SDS011;35355;49.198;-0.368;2022-07-22T08:56:55;17.88;;;9.15;;
49460;SDS011;35355;49.198;-0.368;2022-07-22T08:59:21;23.00;;;10.27;;
49460;SDS011;35355;49.198;-0.368;2022-07-22T09:02:06;25.30;;;10.18;;
49460;SDS011;35355;49.198;-0.368;2022-07-22T09:04:33;26.55;;;10.98;;
49460;SDS011;35355;49.198;-0.368;2022-07-22T09:07:26;14.75;;;9.13;;
49460;SDS011;35355;49.198;-0.368;2022-07-22T09:09:53;20.02;;;8.07;;
49460;SDS011;35355;49.198;-0.368;2022-07-22T09:12:20;17.70;;;9.05;;
49460;SDS011;35355;49.198;-0.368;2022-07-22T09:14:47;12.70;;;8.75;;
49460;SDS011;35355;49.198;-0.368;2022-07-22T09:20:17;12.80;;;7.88;;
49460;SDS011;35355;49.198;-0.368;2022-07-22T09:22:44;16.55;;;8.52;;
49460;SDS011;35355;49.198;-0.368;2022-07-22T09:25:19;16.70;;;8.32;;
49460;SDS011;35355;49.198;-0.368;2022-07-22T09:27:47;14.25;;;9.52;;
49460;SDS011;35355;49.198;-0.368;2022-07-22T09:30:15;12.35;;;7.80;;
49460;SDS011;35355;49.198;-0.368;2022-07-22T09:32:44;15.48;;;8.40;;
49460;SDS011;35355;49.198;-0.368;2022-07-22T09:35:10;18.63;;;9.55;;
49460;SDS011;35355;49.198;-0.368;2022-07-22T09:37:37;16.85;;;8.90;;
49460;SDS011;35355;49.198;-0.368;2022-07-22T09:40:15;12.98;;;8.13;;
49460;SDS011;35355;49.198;-0.368;2022-07-22T09:42:49;12.27;;;8.43;;
49460;SDS011;35355;49.198;-0.368;2022-07-22T09:45:15;16.17;;;9.75;;
49460;SDS011;35355;49.198;-0.368;2022-07-22T09:47:43;16.60;;;8.80;;
49460;SDS011;35355;49.198;-0.368;2022-07-22T09:50:13;17.30;;;9.68;;
49460;SDS011;35355;49.198;-0.368;2022-07-22T09:52:44;15.32;;;8.48;;
49460;SDS011;35355;49.198;-0.368;2022-07-22T09:55:11;16.00;;;8.50;;
49460;SDS011;35355;49.198;-0.368;2022-07-22T09:57:39;15.82;;;8.10;;
49460;SDS011;35355;49.198;-0.368;2022-07-22T10:00:05;13.98;;;8.23;;
49460;SDS011;35355;49.198;-0.368;2022-07-22T10:02:34;13.18;;;7.20;;
49460;SDS011;35355;49.198;-0.368;2022-07-22T10:05:05;19.95;;;8.85;;
49460;SDS011;35355;49.198;-0.368;2022-07-22T10:07:35;14.15;;;7.40;;
49460;SDS011;35355;49.198;-0.368;2022-07-22T10:10:03;19.05;;;7.80;;
49460;SDS011;35355;49.198;-0.368;2022-07-22T10:12:29;14.05;;;7.70;;
49460;SDS011;35355;49.198;-0.368;2022-07-22T10:14:56;11.88;;;8.10;;
49460;SDS011;35355;49.198;-0.368;2022-07-22T10:17:23;16.10;;;8.25;;
49460;SDS011;35355;49.198;-0.368;2022-07-22T10:19:49;18.52;;;8.15;;
49460;SDS011;35355;49.198;-0.368;2022-07-22T10:25:17;16.73;;;7.32;;
49460;SDS011;35355;49.198;-0.368;2022-07-22T10:28:03;16.00;;;8.35;;
49460;SDS011;35355;49.198;-0.368;2022-07-22T10:30:37;17.30;;;7.55;;
49460;SDS011;35355;49.198;-0.368;2022-07-22T10:35:32;16.80;;;7.85;;
49460;SDS011;35355;49.198;-0.368;2022-07-22T10:38:01;20.60;;;8.15;;
49460;SDS011;35355;49.198;-0.368;2022-07-22T10:40:31;14.25;;;7.57;;
49460;SDS011;35355;49.198;-0.368;2022-07-22T10:43:11;13.65;;;8.35;;
49460;SDS011;35355;49.198;-0.368;2022-07-22T10:45:53;18.00;;;7.35;;
49460;SDS011;35355;49.198;-0.368;2022-07-22T10:50:55;15.40;;;6.93;;
49460;SDS011;35355;49.198;-0.368;2022-07-22T10:53:41;16.08;;;8.90;;
49460;SDS011;35355;49.198;-0.368;2022-07-22T10:56:15;15.25;;;8.57;;
49460;SDS011;35355;49.198;-0.368;2022-07-22T11:01:36;22.38;;;9.63;;
49460;SDS011;35355;49.198;-0.368;2022-07-22T11:04:11;29.20;;;13.32;;
49460;SDS011;35355;49.198;-0.368;2022-07-22T11:06:39;26.73;;;13.00;;
49460;SDS011;35355;49.198;-0.368;2022-07-22T11:09:06;24.60;;;10.63;;
49460;SDS011;35355;49.198;-0.368;2022-07-22T11:14:12;20.15;;;11.90;;
49460;SDS011;35355;49.198;-0.368;2022-07-22T11:16:39;23.15;;;10.82;;
49460;SDS011;35355;49.198;-0.368;2022-07-22T11:19:05;25.88;;;9.50;;
49460;SDS011;35355;49.198;-0.368;2022-07-22T11:21:32;15.55;;;9.93;;
49460;SDS011;35355;49.198;-0.368;2022-07-22T11:23:59;19.73;;;11.90;;
49460;SDS011;35355;49.198;-0.368;2022-07-22T11:26:40;16.67;;;10.70;;
49460;SDS011;35355;49.198;-0.368;2022-07-22T11:29:12;21.02;;;12.30;;
49460;SDS011;35355;49.198;-0.368;2022-07-22T11:31:41;22.00;;;12.27;;
49460;SDS011;35355;49.198;-0.368;2022-07-22T11:34:08;21.17;;;11.50;;
49460;SDS011;35355;49.198;-0.368;2022-07-22T11:36:34;18.02;;;11.55;;
49460;SDS011;35355;49.198;-0.368;2022-07-22T11:39:02;16.90;;;11.02;;
49460;SDS011;35355;49.198;-0.368;2022-07-22T11:41:29;19.70;;;10.65;;
49460;SDS011;35355;49.198;-0.368;2022-07-22T11:43:56;21.83;;;10.05;;
49460;SDS011;35355;49.198;-0.368;2022-07-22T11:46:22;18.73;;;10.38;;
49460;SDS011;35355;49.198;-0.368;2022-07-22T11:48:50;15.13;;;10.18;;
49460;SDS011;35355;49.198;-0.368;2022-07-22T11:51:17;19.83;;;11.13;;
49460;SDS011;35355;49.198;-0.368;2022-07-22T11:53:43;18.23;;;12.77;;
49460;SDS011;35355;49.198;-0.368;2022-07-22T11:56:09;30.55;;;14.48;;
49460;SDS011;35355;49.198;-0.368;2022-07-22T11:58:40;37.60;;;15.85;;
49460;SDS011;35355;49.198;-0.368;2022-07-22T12:01:13;21.38;;;12.73;;
49460;SDS011;35355;49.198;-0.368;2022-07-22T12:03:50;16.95;;;8.85;;
49460;SDS011;35355;49.198;-0.368;2022-07-22T12:06:21;13.77;;;7.57;;
49460;SDS011;35355;49.198;-0.368;2022-07-22T12:08:50;12.75;;;7.50;;
49460;SDS011;35355;49.198;-0.368;2022-07-22T12:11:37;14.65;;;7.00;;
49460;SDS011;35355;49.198;-0.368;2022-07-22T12:14:06;12.65;;;7.03;;
49460;SDS011;35355;49.198;-0.368;2022-07-22T12:16:38;13.38;;;6.65;;
49460;SDS011;35355;49.198;-0.368;2022-07-22T12:19:09;12.82;;;6.00;;
49460;SDS011;35355;49.198;-0.368;2022-07-22T12:21:51;11.43;;;6.43;;
49460;SDS011;35355;49.198;-0.368;2022-07-22T12:26:57;8.27;;;6.30;;
49460;SDS011;35355;49.198;-0.368;2022-07-22T12:29:28;9.95;;;6.45;;
49460;SDS011;35355;49.198;-0.368;2022-07-22T12:31:59;13.13;;;6.82;;
49460;SDS011;35355;49.198;-0.368;2022-07-22T12:34:31;14.50;;;7.40;;
49460;SDS011;35355;49.198;-0.368;2022-07-22T12:36:57;13.20;;;7.13;;
49460;SDS011;35355;49.198;-0.368;2022-07-22T12:39:23;8.63;;;6.50;;
49460;SDS011;35355;49.198;-0.368;2022-07-22T12:41:50;13.80;;;6.85;;
49460;SDS011;35355;49.198;-0.368;2022-07-22T12:44:18;10.70;;;6.88;;
49460;SDS011;35355;49.198;-0.368;2022-07-22T12:46:45;13.13;;;7.28;;
49460;SDS011;35355;49.198;-0.368;2022-07-22T12:49:12;9.10;;;5.97;;
49460;SDS011;35355;49.198;-0.368;2022-07-22T12:51:41;9.73;;;7.30;;
49460;SDS011;35355;49.198;-0.368;2022-07-22T12:54:07;11.18;;;6.40;;
49460;SDS011;35355;49.198;-0.368;2022-07-22T12:56:33;10.55;;;5.57;;
49460;SDS011;35355;49.198;-0.368;2022-07-22T12:58:58;10.70;;;5.97;;
49460;SDS011;35355;49.198;-0.368;2022-07-22T13:01:25;7.50;;;5.55;;
49460;SDS011;35355;49.198;-0.368;2022-07-22T13:03:51;8.13;;;4.85;;
49460;SDS011;35355;49.198;-0.368;2022-07-22T13:06:16;6.22;;;5.38;;
49460;SDS011;35355;49.198;-0.368;2022-07-22T13:08:43;9.88;;;5.43;;
49460;SDS011;35355;49.198;-0.368;2022-07-22T13:11:09;10.30;;;5.53;;
49460;SDS011;35355;49.198;-0.368;2022-07-22T13:13:35;7.68;;;6.05;;
49460;SDS011;35355;49.198;-0.368;2022-07-22T13:16:01;12.88;;;6.07;;
49460;SDS011;35355;49.198;-0.368;2022-07-22T13:18:26;10.15;;;5.63;;
49460;SDS011;35355;49.198;-0.368;2022-07-22T13:20:52;10.30;;;6.05;;
49460;SDS011;35355;49.198;-0.368;2022-07-22T13:23:18;9.90;;;6.38;;
49460;SDS011;35355;49.198;-0.368;2022-07-22T13:25:43;9.05;;;6.45;;
49460;SDS011;35355;49.198;-0.368;2022-07-22T13:28:09;9.05;;;6.10;;
49460;SDS011;35355;49.198;-0.368;2022-07-22T13:30:35;9.10;;;6.32;;
49460;SDS011;35355;49.198;-0.368;2022-07-22T13:33:01;9.98;;;6.82;;
49460;SDS011;35355;49.198;-0.368;2022-07-22T13:35:27;9.50;;;6.65;;
49460;SDS011;35355;49.198;-0.368;2022-07-22T13:37:54;8.63;;;6.05;;
49460;SDS011;35355;49.198;-0.368;2022-07-22T13:40:21;10.57;;;5.88;;
49460;SDS011;35355;49.198;-0.368;2022-07-22T13:42:46;6.38;;;4.70;;
49460;SDS011;35355;49.198;-0.368;2022-07-22T13:45:12;7.10;;;4.47;;
49460;SDS011;35355;49.198;-0.368;2022-07-22T13:47:40;7.93;;;4.75;;
49460;SDS011;35355;49.198;-0.368;2022-07-22T13:50:06;5.70;;;3.97;;
49460;SDS011;35355;49.198;-0.368;2022-07-22T14:11:35;8.85;;;3.90;;
49460;SDS011;35355;49.198;-0.368;2022-07-22T14:14:01;7.55;;;4.35;;
49460;SDS011;35355;49.198;-0.368;2022-07-22T14:16:26;9.32;;;4.57;;
49460;SDS011;35355;49.198;-0.368;2022-07-22T14:19:02;7.57;;;5.32;;
49460;SDS011;35355;49.198;-0.368;2022-07-22T14:21:39;6.22;;;4.88;;
49460;SDS011;35355;49.198;-0.368;2022-07-22T14:24:07;8.60;;;6.63;;
49460;SDS011;35355;49.198;-0.368;2022-07-22T14:26:34;8.55;;;5.38;;
49460;SDS011;35355;49.198;-0.368;2022-07-22T14:28:59;13.15;;;6.63;;
49460;SDS011;35355;49.198;-0.368;2022-07-22T14:31:25;11.85;;;5.97;;
49460;SDS011;35355;49.198;-0.368;2022-07-22T14:33:51;16.58;;;6.50;;
49460;SDS011;35355;49.198;-0.368;2022-07-22T14:36:17;19.00;;;5.43;;
49460;SDS011;35355;49.198;-0.368;2022-07-22T14:38:42;8.98;;;4.28;;
49460;SDS011;35355;49.198;-0.368;2022-07-22T14:41:08;7.22;;;4.30;;
49460;SDS011;35355;49.198;-0.368;2022-07-22T14:43:34;11.07;;;4.68;;
49460;SDS011;35355;49.198;-0.368;2022-07-22T14:46:01;8.43;;;4.13;;
49460;SDS011;35355;49.198;-0.368;2022-07-22T14:48:29;7.22;;;3.60;;
49460;SDS011;35355;49.198;-0.368;2022-07-22T14:50:54;11.27;;;2.85;;
49460;SDS011;35355;49.198;-0.368;2022-07-22T14:53:20;4.70;;;1.60;;
49460;SDS011;35355;49.198;-0.368;2022-07-22T14:55:45;3.15;;;1.85;;
49460;SDS011;35355;49.198;-0.368;2022-07-22T14:58:10;3.38;;;1.50;;
49460;SDS011;35355;49.198;-0.368;2022-07-22T15:00:36;1.95;;;1.48;;
49460;SDS011;35355;49.198;-0.368;2022-07-22T15:03:01;3.53;;;1.05;;
49460;SDS011;35355;49.198;-0.368;2022-07-22T15:05:27;6.72;;;1.27;;
49460;SDS011;35355;49.198;-0.368;2022-07-22T15:07:52;3.63;;;1.08;;
49460;SDS011;35355;49.198;-0.368;2022-07-22T15:10:17;4.80;;;1.65;;
49460;SDS011;35355;49.198;-0.368;2022-07-22T15:12:43;2.97;;;1.20;;
49460;SDS011;35355;49.198;-0.368;2022-07-22T15:15:08;4.60;;;1.20;;
49460;SDS011;35355;49.198;-0.368;2022-07-22T15:17:35;2.58;;;1.25;;
49460;SDS011;35355;49.198;-0.368;2022-07-22T15:20:03;4.80;;;1.90;;
49460;SDS011;35355;49.198;-0.368;2022-07-22T15:22:30;8.40;;;2.00;;